Date,TemperatureHighF,TemperatureAvgF,TemperatureLowF,DewpointHighF,DewpointAvgF,DewpointLowF,HumidityHigh,HumidityAvg,HumidityLow,PressureMaxIn,PressureMinIn,WindSpeedMaxMPH,WindSpeedAvgMPH,GustSpeedMaxMPH,PrecipitationSumIn
2013-1-3,65,28,28,23,23,22,79,77,76,29.00,28.94,8,3,9,0.00
2013-1-4,29,26,23,23,19,16,80,71,60,29.00,28.88,14,5,20,0.00
2013-1-5,35,28,20,30,22,15,90,77,63,29.09,28.85,14,5,17,0.00
2013-1-6,34,33,32,31,29,24,93,83,70,29.09,28.73,14,5,18,0.00
2013-1-7,35,30,25,26,22,19,81,69,57,29.21,28.97,23,6,27,0.00
2013-1-8,38,31,25,26,23,19,77,70,59,29.03,28.94,12,5,15,0.00
2013-1-9,44,38,32,32,28,22,81,68,48,29.26,28.85,14,6,17,0.00
2013-1-10,39,32,24,34,27,19,96,80,65,29.35,28.94,11,3,15,0.00
2013-1-11,55,44,35,54,44,34,100,98,87,28.94,28.59,17,6,24,0.00
2013-1-12,57,50,41,51,46,38,100,87,70,28.79,28.64,13,5,17,0.00
2013-1-13,41,35,27,38,35,25,100,98,88,28.91,28.61,9,3,13,0.00
2013-1-14,27,23,17,26,19,14,94,84,75,29.23,28.91,10,3,10,0.00
2013-1-15,28,20,12,22,16,8,88,80,65,29.29,28.97,6,1,6,0.00
2013-1-16,33,26,16,29,19,12,88,75,55,28.97,28.64,14,4,17,0.00
2013-1-17,34,28,20,30,20,7,89,68,52,29.15,28.79,12,5,15,0.00
2013-1-18,34,26,16,22,15,8,71,61,53,29.21,28.76,23,7,28,0.00
2013-1-19,44,39,34,38,31,22,84,71,59,28.76,28.47,24,-102,32,0.00
2013-1-20,41,19,16,27,7,4,61,55,53,29.00,28.47,15,5,16,0.00
2013-1-21,18,13,4,11,5,-5,77,66,60,28.97,28.79,11,4,13,0.00
2013-1-22,12,4,-3,3,-5,-12,62,62,62,29.12,28.94,9,3,11,0.00
2013-1-23,18,11,5,7,2,-4,71,62,56,29.09,28.88,15,4,19,0.00
2013-1-24,17,11,4,7,1,-4,71,60,46,29.50,28.94,9,3,12,0.00
2013-1-25,23,18,12,17,9,-1,78,64,51,29.26,28.79,10,3,13,0.00
2013-1-26,28,22,15,17,13,5,79,67,52,29.23,28.85,9,3,9,0.00
2013-1-27,32,23,13,29,15,4,90,68,55,29.23,28.88,13,4,17,0.00
2013-1-28,43,38,32,43,37,29,100,99,89,28.88,28.67,11,4,16,0.00
2013-1-29,56,49,34,56,49,34,100,100,100,28.85,28.29,21,7,22,0.00
2013-1-30,57,47,28,57,46,22,100,99,77,28.29,27.99,20,6,24,0.00
2013-1-31,28,21,16,22,15,8,89,75,61,28.73,28.17,16,5,20,0.00
2013-2-1,19,14,8,12,6,-2,81,70,61,29.06,28.73,12,5,15,0.00
2013-2-2,24,16,9,18,8,0,80,70,61,29.00,28.76,12,5,14,0.00
2013-2-3,23,15,5,17,7,-3,77,69,61,28.82,28.67,13,3,17,0.00
2013-2-4,25,20,15,19,15,10,80,78,72,28.82,28.67,6,1,7,0.00
2013-2-5,29,20,4,26,14,-1,91,77,62,28.79,28.61,13,4,17,0.00
2013-2-6,31,22,8,22,14,1,83,66,55,29.09,28.79,11,3,14,0.00
2013-2-7,38,30,25,29,22,16,97,70,62,29.06,28.64,10,4,15,0.00
2013-2-8,30,26,9,28,19,1,94,75,56,29.18,28.61,15,5,18,0.00
2013-2-9,31,17,1,18,7,-8,75,63,53,29.23,29.03,10,2,13,0.00
2013-2-10,40,31,22,39,24,16,96,74,60,29.03,28.50,15,5,17,0.00
2013-2-11,43,35,30,43,31,26,100,85,73,28.73,28.38,27,8,31,0.00
2013-2-12,31,29,27,26,24,22,86,80,76,28.88,28.73,10,4,13,0.00
2013-2-13,38,30,25,29,25,21,86,78,65,28.76,28.56,13,3,13,0.00
2013-2-14,40,34,28,33,30,25,94,86,75,28.70,28.50,19,6,25,0.00
2013-2-15,32,26,21,30,17,12,90,65,51,28.97,28.70,9,5,11,0.00
2013-2-16,24,20,14,17,12,8,79,69,53,28.94,28.85,10,3,13,0.00
2013-2-17,25,17,11,11,8,6,76,64,47,29.03,28.88,7,2,12,0.00
2013-2-18,45,33,18,41,24,9,90,67,54,28.97,28.38,21,6,29,0.00
2013-2-19,43,27,17,42,23,11,100,83,67,28.79,28.23,21,7,28,0.00
2013-2-20,22,19,15,14,10,5,77,65,55,29.06,28.76,14,7,17,0.00
2013-2-21,26,23,21,17,15,13,74,67,60,29.18,29.06,9,4,11,0.00
2013-2-25,39,32,16,27,24,11,87,70,57,29.03,28.91,8,2,9,0.00
2013-2-26,35,32,28,33,26,20,100,79,57,28.91,28.32,15,4,20,0.00
2013-2-27,35,34,33,34,33,32,100,97,93,28.41,28.26,6,1,8,0.00
2013-2-28,35,33,30,34,32,29,100,96,86,28.79,28.41,11,5,12,0.00
2013-3-1,30,27,25,29,22,17,97,82,65,28.94,28.79,9,4,12,0.00
2013-3-2,27,23,20,22,17,14,84,74,67,28.94,28.88,9,4,10,0.00
2013-3-3,29,23,20,16,14,12,79,66,51,28.91,28.85,9,4,10,0.00
2013-3-4,32,22,12,19,13,6,77,66,52,28.97,28.88,5,2,6,0.00
2013-3-5,37,27,19,23,18,12,80,66,50,28.94,28.61,13,5,15,0.00
2013-3-6,36,31,27,27,24,21,80,75,65,29.03,28.70,12,4,14,0.00
2013-3-7,37,33,28,29,23,18,88,68,51,29.21,29.03,10,3,11,0.00
2013-3-8,40,30,20,23,19,13,77,63,50,29.29,29.21,7,1,8,0.00
2013-3-9,41,34,25,31,25,19,78,68,55,29.21,28.85,12,3,17,0.00
2013-3-10,54,46,36,44,38,29,92,73,63,28.85,28.61,16,6,21,0.00
2013-3-11,52,46,36,48,42,32,100,86,62,28.61,28.32,17,6,17,0.00
2013-3-12,35,33,30,32,29,24,93,85,73,28.73,28.53,14,4,17,0.00
2013-3-13,31,28,23,28,19,13,89,67,51,29.06,28.67,14,6,16,0.00
2013-3-14,39,30,21,21,17,13,72,57,45,29.09,28.91,8,2,10,0.00
2013-3-15,40,34,30,33,28,18,94,78,54,28.91,28.64,8,3,12,0.00
2013-3-16,33,30,27,32,27,24,99,88,75,28.88,28.56,5,0,8,0.00
2013-3-17,32,26,22,24,17,13,81,64,51,29.09,28.85,13,4,15,0.00
2013-3-18,34,29,23,33,25,14,96,82,61,28.97,28.38,10,4,17,0.00
2013-3-19,33,26,22,31,18,14,92,70,59,28.79,28.47,19,6,21,0.00
2013-3-20,27,23,16,16,12,7,68,59,52,28.79,28.73,11,4,15,0.00
2013-3-21,32,24,15,22,16,7,79,68,55,28.79,28.70,11,4,13,0.00
2013-3-22,38,30,25,25,19,15,83,64,50,28.85,28.76,9,4,11,0.00
2013-3-23,33,28,21,33,25,18,100,87,70,28.94,28.85,6,2,9,0.00
2013-3-24,33,29,23,33,29,23,100,100,100,28.85,28.50,20,5,20,0.00
2013-3-25,35,32,29,35,32,29,100,100,100,28.79,28.41,15,7,19,0.00
2013-3-26,39,34,30,39,34,30,100,100,100,28.97,28.79,10,4,11,0.00
2013-3-27,44,35,29,37,31,25,100,85,56,29.06,28.97,12,5,13,0.00
2013-3-28,50,37,28,30,26,21,92,66,40,29.12,29.03,10,4,12,0.00
2013-3-29,50,37,25,27,22,18,79,55,36,29.12,29.03,7,2,8,0.00
2013-3-30,54,40,25,28,24,18,75,54,36,29.06,28.76,12,3,14,0.00
2013-3-31,56,46,38,43,34,27,91,65,46,28.76,28.50,14,4,16,0.00
2013-4-1,38,31,25,30,16,11,87,52,39,28.94,28.59,14,6,15,0.00
2013-4-2,40,30,22,20,14,10,73,50,31,29.09,28.91,15,4,15,0.00
2013-4-3,43,32,23,18,14,11,72,46,31,29.23,29.09,12,3,12,0.00
2013-4-4,55,40,26,24,18,13,53,41,26,29.15,28.79,12,4,14,0.00
2013-4-5,48,40,33,24,19,16,65,45,30,29.03,28.79,11,4,12,0.00
2013-4-6,57,44,32,30,24,17,66,47,29,29.03,28.59,16,6,24,0.00
2013-4-7,57,49,36,46,36,28,83,63,39,28.85,28.47,21,6,36,0.00
2013-4-8,60,44,36,59,40,28,100,85,72,28.85,28.50,17,5,26,0.00
2013-4-9,55,46,41,51,46,41,100,97,81,28.91,28.70,10,3,12,0.00
2013-4-10,44,41,38,44,41,38,100,100,99,28.88,28.64,13,5,15,0.00
2013-4-11,38,37,36,38,37,36,100,100,100,28.79,28.50,18,6,23,0.00
2013-4-12,42,38,35,40,38,35,100,99,89,28.61,28.38,14,4,16,0.00
2013-4-13,41,37,35,39,33,29,100,87,68,28.82,28.61,12,4,18,0.00
2013-4-14,51,40,32,40,34,28,91,80,58,28.94,28.73,16,3,24,0.00
2013-4-15,60,48,41,56,44,34,96,84,73,28.76,28.67,16,4,20,0.00
2013-4-16,58,50,44,56,42,32,100,77,43,29.09,28.73,10,4,15,0.00
2013-4-17,58,47,39,46,38,31,100,72,46,29.15,28.82,14,5,23,0.00
2013-4-18,71,57,44,68,57,44,100,99,90,28.85,28.41,24,7,31,0.00
2013-4-19,59,42,33,59,40,33,100,93,78,28.61,28.26,21,8,26,0.00
2013-4-20,38,33,29,33,24,18,100,67,50,29.26,28.61,12,5,14,0.00
2013-4-21,50,37,25,32,25,21,83,62,46,29.41,29.26,10,3,15,0.00
2013-4-22,62,48,33,37,32,23,87,57,35,29.26,29.00,13,4,15,0.00
2013-4-23,66,53,43,54,43,31,100,70,47,29.00,28.67,17,6,22,0.00
2013-4-24,47,38,34,47,36,30,100,94,69,28.97,28.64,10,5,12,0.00
2013-4-25,50,40,34,44,33,28,98,77,48,29.18,28.91,16,5,19,0.00
2013-4-26,60,46,32,39,33,28,84,63,44,29.26,29.15,20,5,20,0.00
2013-4-27,68,55,39,44,38,32,79,54,36,29.18,28.94,12,4,15,0.00
2013-4-28,54,53,50,54,46,33,100,79,48,28.94,28.67,8,2,10,0.00
2013-4-29,70,60,51,60,54,51,100,84,54,28.79,28.70,10,3,12,0.00
2013-4-30,71,61,54,66,57,51,100,87,75,28.88,28.76,16,5,21,0.00
2013-5-1,80,68,54,62,57,52,93,69,45,29.09,28.88,13,4,17,0.00
2013-5-2,78,67,57,62,54,46,81,64,46,29.09,28.97,20,4,20,0.00
2013-5-3,78,67,57,60,50,40,76,57,38,28.97,28.88,13,4,16,0.00
2013-5-4,72,63,56,52,44,38,69,51,33,28.97,28.88,13,4,15,0.00
2013-5-5,72,61,51,51,42,37,69,51,32,28.94,28.88,11,3,15,0.00
2013-5-6,74,61,45,51,45,39,81,58,42,28.91,28.82,9,2,11,0.00
2013-5-7,76,62,48,58,50,44,87,65,45,28.91,28.85,10,2,13,0.00
2013-5-8,78,65,50,57,51,46,92,63,40,28.88,28.82,6,1,10,0.00
2013-5-9,78,66,52,58,52,47,89,64,40,28.85,28.73,7,1,8,0.00
2013-5-10,63,54,43,62,52,43,100,94,75,28.76,28.61,7,3,8,0.00
2013-5-11,60,47,38,51,44,34,100,88,69,28.76,28.61,16,4,19,0.00
2013-5-12,47,40,35,35,30,25,90,68,49,28.94,28.73,12,4,15,0.00
2013-5-13,55,43,31,33,28,24,84,56,36,29.00,28.94,8,2,8,0.00
2013-5-14,77,60,44,57,44,29,86,56,47,28.94,28.59,18,4,22,0.00
2013-5-15,78,71,60,61,53,41,86,56,40,28.70,28.47,18,4,20,0.00
2013-5-16,80,66,50,54,47,40,76,52,33,28.85,28.64,9,2,9,0.00
2013-5-17,75,64,51,53,46,40,68,54,43,28.97,28.88,9,3,10,0.00
2013-5-18,80,67,54,62,50,40,71,55,46,29.00,28.88,8,3,10,0.00
2013-5-19,84,70,55,68,57,44,76,63,50,28.91,28.73,10,2,12,0.00
2013-5-20,87,75,65,73,67,61,91,76,55,28.79,28.64,17,4,20,0.00
2013-5-21,81,73,64,68,65,61,94,75,60,28.70,28.59,13,4,19,0.00
2013-5-22,78,68,60,67,64,59,99,88,62,28.61,28.50,14,4,20,0.00
2013-5-23,60,54,46,60,54,46,100,99,97,29.00,28.59,9,3,12,0.00
2013-5-24,58,47,37,46,41,37,100,79,54,29.21,29.03,6,2,7,0.00
2013-5-25,63,52,39,47,41,37,94,69,43,29.21,29.12,6,1,8,0.00
2013-5-26,68,55,39,47,40,35,91,60,38,29.18,29.09,6,1,9,0.00
2013-5-27,57,52,48,52,44,35,99,77,59,29.09,28.82,12,3,16,0.00
2013-5-28,73,64,52,72,63,52,100,99,93,28.85,28.67,14,4,18,0.00
2013-5-29,76,70,63,72,68,63,100,93,78,28.85,28.67,10,3,14,0.00
2013-5-30,85,74,66,74,68,64,97,82,63,28.91,28.82,16,5,20,0.00
2013-5-31,76,72,68,70,67,66,94,86,78,28.85,28.67,16,5,23,0.00
2013-6-1,76,69,64,70,66,64,100,91,78,28.70,28.56,14,5,17,0.00
2013-6-2,67,61,52,64,57,45,96,84,72,28.85,28.53,9,3,12,0.00
2013-6-3,66,55,41,48,44,38,93,68,47,28.94,28.85,6,1,7,0.00
2013-6-4,71,59,45,55,49,42,92,70,50,29.03,28.94,6,1,6,0.00
2013-6-5,72,62,52,51,47,39,73,58,44,29.03,28.85,6,2,8,0.00
2013-6-6,68,61,56,57,52,46,78,72,64,28.85,28.73,8,3,10,0.00
2013-6-7,64,57,50,55,51,48,94,82,72,28.79,28.73,8,2,10,0.00
2013-6-8,71,60,46,60,54,44,98,80,63,28.91,28.76,5,0,6,0.00
2013-6-9,76,68,60,66,60,54,87,75,66,28.94,28.79,12,3,15,0.00
2013-6-10,72,66,62,70,65,59,100,96,78,28.79,28.61,7,2,10,0.00
2013-6-11,79,69,62,71,66,62,100,90,74,28.79,28.64,6,1,8,0.00
2013-6-12,77,69,61,73,67,60,99,94,83,28.79,28.50,10,1,11,0.00
2013-6-13,76,66,60,66,62,57,100,88,52,28.82,28.44,8,3,10,0.00
2013-6-14,74,65,57,62,58,54,97,79,51,28.97,28.82,6,1,8,0.00
2013-6-15,76,65,55,67,60,53,97,85,70,28.94,28.79,8,2,12,0.00
2013-6-16,78,69,62,72,64,56,100,86,58,28.79,28.67,11,3,13,0.00
2013-6-17,84,71,59,68,60,56,93,71,44,28.82,28.73,6,2,8,0.00
2013-6-18,71,64,55,61,55,47,96,73,52,28.94,28.76,10,3,12,0.00
2013-6-19,75,61,46,57,51,43,91,70,48,29.03,28.94,7,1,8,0.00
2013-6-20,80,67,52,62,55,48,89,68,43,29.06,28.97,7,1,8,0.00
2013-6-21,84,72,61,69,62,56,90,70,53,29.06,28.88,13,3,15,0.00
2013-6-22,85,75,66,75,69,59,92,80,69,28.97,28.85,10,2,12,0.00
2013-6-23,87,77,68,74,70,66,93,79,57,28.94,28.85,12,4,13,0.00
2013-6-24,86,76,67,75,70,64,94,81,66,28.94,28.76,12,3,17,0.00
2013-6-25,80,72,66,76,69,64,100,91,80,28.88,28.70,10,3,13,0.00
2013-6-26,79,71,64,76,70,64,100,95,82,28.79,28.61,14,2,15,0.00
2013-6-27,84,72,66,77,70,64,100,91,69,28.64,28.53,8,1,13,0.00
2013-6-28,78,69,62,69,65,62,99,90,63,28.53,28.44,6,1,7,0.00
2013-6-29,73,67,62,68,64,61,100,91,77,28.61,28.44,10,2,10,0.00
2013-6-30,77,68,61,67,62,51,96,81,64,28.85,28.61,12,2,12,0.00
2013-7-1,70,63,57,59,53,48,78,71,57,28.97,28.82,15,3,21,0.00
2013-7-2,71,64,57,65,59,51,93,84,72,28.94,28.88,8,2,8,0.00
2013-7-3,80,70,63,70,65,62,98,86,69,28.97,28.88,10,2,17,0.00
2013-7-4,78,69,62,67,64,61,98,83,63,29.03,28.94,8,1,9,0.00
2013-7-5,81,72,64,70,66,62,97,81,60,29.00,28.91,4,0,6,0.00
2013-7-6,81,73,66,73,69,64,97,86,71,28.97,28.88,6,1,9,0.00
2013-7-7,81,72,68,74,70,67,98,91,78,28.91,28.85,7,2,9,0.00
2013-7-8,80,73,68,77,70,67,99,92,78,28.91,28.85,11,3,13,0.00
2013-7-9,85,74,68,79,72,67,99,93,80,28.88,28.76,10,2,12,0.00
2013-7-10,84,75,65,79,70,57,100,84,61,28.85,28.67,8,3,10,0.00
2013-7-11,77,67,57,64,59,55,96,76,50,28.94,28.85,5,1,6,0.00
2013-7-12,78,66,55,65,60,52,96,79,59,29.03,28.91,7,1,8,0.00
2013-7-13,81,70,57,68,62,55,96,76,54,29.09,29.00,6,1,8,0.00
2013-7-14,86,79,66,74,71,63,94,77,65,29.12,29.06,5,1,7,0.00
2013-7-15,89,76,67,80,72,65,97,89,68,29.18,29.12,5,1,5,0.00
2013-7-16,87,78,72,80,74,71,99,89,70,29.18,29.12,9,1,11,0.00
2013-7-17,86,78,71,81,76,70,98,92,83,29.18,29.03,7,1,9,0.00
2013-7-18,89,78,71,81,75,69,98,90,76,29.06,28.85,9,1,11,0.00
2013-7-19,90,82,74,79,75,68,96,81,64,28.85,28.61,13,4,17,0.00
2013-7-20,82,74,67,72,68,63,97,81,54,28.82,28.61,10,2,13,0.00
2013-7-21,80,71,63,69,65,61,94,82,66,28.88,28.79,3,0,4,0.00
2013-7-22,78,71,66,72,68,65,98,89,74,28.85,28.64,9,2,10,0.00
2013-7-23,81,71,58,75,66,50,99,85,62,28.79,28.59,9,3,11,0.00
2013-7-24,70,61,52,56,52,47,87,73,57,28.91,28.79,6,1,7,0.00
2013-7-25,73,63,51,61,55,49,94,77,50,28.97,28.91,2,0,3,0.00
2013-7-26,76,66,58,65,60,54,92,79,63,28.97,28.76,10,2,13,0.00
2013-7-27,74,65,56,68,61,50,98,86,72,28.79,28.64,6,2,6,0.00
2013-7-28,65,58,52,59,53,49,96,85,71,28.85,28.70,10,2,14,0.00
2013-7-29,68,60,56,59,56,53,96,86,71,29.06,28.82,7,1,8,0.00
2013-7-30,75,63,49,64,58,48,98,84,64,29.09,28.97,6,0,6,0.00
2013-7-31,69,67,64,68,65,62,100,95,90,28.97,28.76,2,0,3,0.00
2013-8-1,74,66,59,69,62,54,100,86,56,28.82,28.76,6,1,6,0.00
2013-8-2,70,63,55,67,60,53,98,92,83,28.82,28.73,12,2,14,0.00
2013-8-3,74,66,57,67,59,53,100,80,49,28.94,28.79,5,1,6,0.00
2013-8-4,71,62,52,58,55,50,94,78,59,29.06,28.94,4,1,6,0.00
2013-8-5,70,61,50,62,56,48,96,84,71,28.97,28.82,5,1,7,0.00
2013-8-6,77,68,62,72,65,59,98,90,80,28.82,28.73,10,3,12,0.00
2013-8-7,79,70,64,77,69,64,100,98,93,28.79,28.70,9,2,11,0.00
2013-8-8,74,68,62,70,63,58,100,87,69,28.88,28.79,6,2,8,0.00
2013-8-9,77,67,58,65,61,56,97,81,63,28.88,28.85,5,1,6,0.00
2013-8-10,75,67,60,64,60,56,96,81,58,29.00,28.88,5,1,6,0.00
2013-8-11,75,66,58,65,60,56,97,80,55,29.00,28.91,7,1,8,0.00
2013-8-12,72,66,63,72,65,59,100,97,82,28.94,28.73,8,2,10,0.00
2013-8-13,66,60,53,66,54,47,100,82,54,28.97,28.76,6,2,8,0.00
2013-8-14,68,57,47,56,51,45,94,80,60,29.06,28.97,6,1,8,0.00
2013-8-15,71,60,47,60,54,45,97,81,62,29.03,28.97,8,1,10,0.00
2013-8-16,74,62,50,62,55,48,97,79,54,29.06,29.00,4,0,6,0.00
2013-8-17,76,64,51,64,56,49,97,79,55,29.12,29.03,6,1,8,0.00
2013-8-18,77,65,53,67,59,50,97,82,61,29.09,28.97,6,0,6,0.00
2013-8-19,78,67,55,66,60,53,97,81,59,29.00,28.91,5,0,6,0.00
2013-8-20,81,70,59,70,64,57,97,84,67,29.03,28.94,5,0,7,0.00
2013-8-21,82,72,63,73,67,61,97,84,64,29.00,28.88,6,0,7,0.00
2013-8-22,77,70,65,72,67,62,98,90,80,28.94,28.85,4,0,5,0.00
2013-8-23,76,67,56,67,59,51,99,78,43,29.09,28.94,2,0,4,0.00
2013-8-24,78,66,54,65,58,51,96,77,54,29.18,29.06,4,0,6,0.00
2013-8-25,82,70,56,70,62,54,92,79,63,29.15,29.03,6,1,8,0.00
2013-8-26,83,74,66,75,68,62,92,82,73,29.06,28.85,8,1,10,0.00
2013-8-27,85,76,70,80,74,69,99,92,82,28.91,28.70,10,3,12,0.00
2013-8-28,78,72,66,75,72,66,100,99,84,28.91,28.67,8,1,12,0.00
2013-8-29,81,71,61,76,69,61,100,94,78,28.97,28.88,4,0,6,0.00
2013-8-30,83,74,65,74,70,65,99,89,71,28.88,28.64,11,3,15,0.00
2013-8-31,78,72,68,72,69,65,96,89,77,28.73,28.64,4,1,6,0.00
2013-9-1,79,72,68,75,70,66,98,93,83,28.73,28.61,6,0,6,0.00
2013-9-2,72,67,59,68,61,51,98,83,64,28.82,28.61,6,2,7,0.00
2013-9-3,71,63,58,58,55,52,86,76,57,28.91,28.79,4,1,5,0.00
2013-9-4,75,64,54,65,59,52,96,82,63,28.97,28.88,8,1,10,0.00
2013-9-5,68,60,52,61,51,45,91,73,46,29.09,28.97,4,1,8,0.00
2013-9-6,72,60,49,58,52,45,93,78,58,29.09,28.91,8,2,8,0.00
2013-9-7,76,67,58,70,62,51,92,82,75,28.94,28.76,7,2,8,0.00
2013-9-8,74,68,60,66,63,55,98,86,70,28.94,28.79,8,-30,10,0.00
2013-9-9,78,66,57,75,64,54,100,94,81,28.91,28.76,7,-29,10,0.00
2013-9-10,86,78,72,76,72,68,98,83,59,28.88,28.73,10,-1,11,0.00
2013-9-11,84,75,68,76,70,67,96,86,73,28.91,28.85,11,-10,11,0.00
2013-9-12,74,67,56,67,62,50,99,83,51,28.85,28.76,6,-8,11,0.00
2013-9-13,58,54,45,51,45,40,87,74,58,28.97,28.85,7,-21,8,0.00
2013-9-14,64,53,39,49,44,36,96,73,50,29.06,28.94,6,-18,8,0.00
2013-9-15,59,54,47,56,50,43,97,89,79,29.00,28.91,6,1,8,0.00
2013-9-16,60,55,46,55,51,42,100,89,67,29.23,29.00,7,2,7,0.00
2013-9-17,65,52,38,54,46,36,97,82,64,29.23,29.09,8,-3,10,0.00
2013-9-18,73,60,49,61,53,46,96,80,57,29.09,28.91,8,2,9,0.00
2013-9-19,75,66,58,70,63,56,97,90,83,28.91,28.79,10,3,12,0.00
2013-9-20,74,70,66,71,68,65,99,95,86,28.79,28.61,10,4,14,0.00
2013-9-21,66,60,54,65,54,46,97,81,53,28.76,28.59,8,2,8,0.00
2013-9-22,55,51,42,47,43,38,86,73,64,28.94,28.76,5,2,6,0.00
2013-9-23,60,49,39,49,43,36,94,81,65,29.03,28.94,6,1,10,0.00
2013-9-24,65,51,38,52,45,35,97,81,63,28.97,28.85,11,1,11,0.00
2013-9-25,67,54,42,56,48,40,97,81,61,28.88,28.82,6,1,8,0.00
2013-9-26,70,54,40,57,47,37,98,79,50,29.00,28.85,6,1,6,0.00
2013-9-27,72,58,43,59,51,39,97,79,60,29.09,29.00,6,1,7,0.00
2013-9-28,74,61,47,61,54,43,97,78,48,29.06,28.88,9,2,14,0.00
2013-9-29,65,60,52,60,56,50,97,87,74,28.88,28.82,7,2,9,0.00
2013-9-30,68,57,49,59,53,48,99,87,63,28.88,28.79,9,1,11,0.00
2013-10-1,68,61,52,64,59,49,100,93,84,28.88,28.82,11,4,15,0.00
2013-10-2,72,63,53,61,55,47,100,78,42,28.97,28.82,6,1,9,0.00
2013-10-3,74,63,52,69,60,47,97,89,82,28.94,28.82,10,2,17,0.00
2013-10-4,76,69,65,71,67,64,99,94,86,28.91,28.82,8,2,10,0.00
2013-10-5,74,68,63,71,67,63,100,97,91,28.91,28.73,8,2,11,0.00
2013-10-6,68,63,54,68,62,54,100,98,92,28.73,28.56,10,3,13,0.00
2013-10-7,58,50,43,55,48,42,100,92,68,28.97,28.59,10,4,13,0.00
2013-10-8,66,53,43,51,47,42,98,80,51,29.12,28.97,11,2,13,0.00
2013-10-9,66,55,44,55,47,41,97,77,50,29.15,29.06,8,2,10,0.00
2013-10-10,67,52,40,53,44,37,97,75,47,29.09,28.97,6,1,6,0.00
2013-10-11,68,53,38,56,46,34,96,77,53,29.00,28.94,6,1,8,0.00
2013-10-12,74,61,52,60,53,49,97,77,51,28.97,28.91,12,2,15,0.00
2013-10-13,63,56,46,60,47,39,94,73,43,29.21,28.97,5,1,7,0.00
2013-10-14,59,48,38,46,40,34,93,73,50,29.26,29.09,6,1,8,0.00
2013-10-15,62,52,38,61,49,34,98,89,80,29.09,28.67,11,3,13,0.00
2013-10-16,61,53,49,60,50,46,98,92,81,28.76,28.67,12,4,14,0.00
2013-10-17,51,49,47,50,48,47,100,97,93,28.76,28.61,10,3,11,0.00
2013-10-18,59,48,40,52,45,40,100,91,68,28.79,28.70,9,3,11,0.00
2013-10-19,49,44,40,46,42,39,98,92,76,28.76,28.61,8,3,12,0.00
2013-10-20,56,47,40,46,42,39,98,84,59,28.76,28.64,17,4,20,0.00
2013-10-21,55,49,41,50,43,32,93,80,64,28.73,28.67,14,5,18,0.00
2013-10-22,49,41,34,34,30,27,79,67,49,28.76,28.73,9,3,13,0.00
2013-10-23,45,37,32,35,30,26,94,75,48,28.79,28.67,7,2,10,0.00
2013-10-24,45,36,32,35,31,28,90,82,54,29.03,28.79,8,2,9,0.00
2013-10-25,45,38,32,38,32,27,94,79,56,29.18,28.94,12,2,15,0.00
2013-10-26,50,43,39,39,30,25,71,59,51,28.94,28.64,22,6,29,0.00
2013-10-27,52,42,34,37,31,27,83,66,46,28.91,28.82,11,2,14,0.00
2013-10-28,50,41,33,39,32,26,83,71,63,29.23,28.88,10,2,12,0.00
2013-10-29,52,44,37,40,35,30,77,71,61,29.26,29.09,9,2,10,0.00
2013-10-30,61,49,37,55,42,31,97,78,51,29.09,28.79,9,2,12,0.00
2013-10-31,61,59,56,61,59,55,100,100,98,28.79,28.05,20,7,24,0.00
2013-11-1,58,47,44,58,47,43,100,99,94,28.53,28.08,14,4,18,0.00
2013-11-2,46,44,38,46,43,38,100,96,79,28.97,28.53,8,2,9,0.00
2013-11-3,46,39,32,39,35,31,100,87,64,29.26,28.97,7,2,10,0.00
2013-11-4,49,41,36,36,31,26,91,69,42,29.26,29.09,12,4,20,0.00
2013-11-5,54,51,44,47,44,36,84,76,69,29.18,28.97,13,5,15,0.00
2013-11-6,55,51,41,54,48,41,100,88,61,28.97,28.64,16,7,23,0.00
2013-11-7,45,38,32,41,33,26,100,84,51,29.00,28.85,10,4,12,0.00
2013-11-8,42,36,31,36,33,31,100,88,68,29.12,28.97,7,2,9,0.00
2013-11-9,55,47,38,41,35,29,79,65,55,28.97,28.67,23,6,24,0.00
2013-11-10,47,41,34,38,27,25,75,58,47,29.12,28.76,13,4,13,0.00
2013-11-11,43,36,26,39,31,22,100,81,66,29.18,28.88,12,5,14,0.00
2013-11-12,32,26,22,26,21,17,91,78,55,29.38,29.18,10,4,11,0.00
2013-11-13,37,29,21,27,20,17,89,71,46,29.35,28.97,17,6,23,0.00
2013-11-14,47,38,30,33,24,19,65,57,47,29.00,28.82,19,7,23,0.00
2013-11-15,52,43,37,28,25,22,59,49,37,28.88,28.82,13,5,17,0.00
2013-11-16,57,48,36,55,42,24,98,79,59,28.88,28.61,18,6,23,0.00
2013-11-17,62,58,56,61,58,55,100,99,97,28.61,28.14,26,9,26,0.00
2013-11-18,34,34,34,25,22,21,68,62,57,28.97,28.85,10,6,13,0.00
2013-11-19,38,32,27,22,21,19,73,62,50,29.21,29.15,7,2,8,0.00
2013-11-20,44,34,25,30,24,20,80,66,44,29.21,29.03,11,2,15,0.00
2013-11-21,50,44,39,43,38,29,96,80,67,29.09,29.00,11,3,13,0.00
2013-11-22,45,38,27,45,35,22,100,88,65,29.21,28.97,13,3,15,0.00
2013-11-23,28,24,16,24,14,5,87,66,43,29.35,29.09,14,6,20,0.00
2013-11-24,25,19,15,14,9,4,69,60,46,29.41,29.21,10,4,12,0.00
2013-11-25,33,26,19,25,13,6,84,57,42,29.21,28.88,17,8,21,0.00
2013-11-26,33,30,26,29,25,20,92,81,76,28.91,28.76,9,4,12,0.00
2013-11-27,27,22,17,21,12,7,83,61,45,29.03,28.79,14,5,19,0.00
2013-11-28,28,24,17,19,14,7,78,63,52,29.21,29.00,13,2,15,0.00
2013-11-29,33,26,19,22,18,12,81,67,51,29.44,29.21,6,1,9,0.00
2013-11-30,45,35,27,27,23,19,70,61,48,29.32,28.91,12,4,17,0.00
2013-12-1,41,36,33,32,28,24,81,72,63,28.91,28.82,6,2,7,0.00
2013-12-2,39,33,29,29,24,19,86,69,50,28.82,28.70,7,1,9,0.00
2013-12-3,39,35,30,38,31,21,97,86,64,28.73,28.61,9,3,11,0.00
2013-12-4,58,47,37,57,46,36,100,99,94,28.70,28.44,15,4,18,0.00
2013-12-5,58,40,30,57,33,20,98,76,59,28.97,28.44,13,4,17,0.00
2013-12-6,30,25,20,22,14,8,69,61,55,29.23,28.97,8,4,9,0.00
2013-12-7,24,19,13,14,9,4,75,60,48,29.41,29.21,9,2,12,0.00
2013-12-8,27,19,12,24,12,3,87,69,55,29.38,28.79,8,2,10,0.00
2013-12-9,29,25,18,25,20,9,89,79,62,28.91,28.70,14,4,17,0.00
2013-12-10,21,16,8,15,7,-1,76,63,45,28.97,28.76,18,5,24,0.00
2013-12-11,25,17,10,17,9,0,77,67,56,29.26,28.97,9,3,10,0.00
2013-12-12,20,13,4,12,2,-6,68,57,45,29.23,28.97,14,4,20,0.00
2013-12-13,29,23,19,20,16,12,74,69,62,29.03,28.94,10,2,13,0.00
2013-12-14,24,20,18,18,16,14,83,80,68,29.03,28.64,10,3,14,0.00
2013-12-15,25,20,17,22,14,8,87,76,61,28.85,28.61,9,3,14,0.00
2013-12-16,21,13,0,11,6,-6,74,68,59,28.97,28.79,7,1,7,0.00
2013-12-17,26,22,16,23,18,10,89,80,73,28.82,28.67,12,4,16,0.00
2013-12-18,30,26,24,24,19,11,90,72,53,28.94,28.67,15,5,17,0.00
2013-12-19,40,35,28,33,28,16,90,76,55,28.79,28.64,12,3,13,0.00
2013-12-20,36,34,33,35,34,32,100,98,90,28.70,28.56,6,2,6,0.00
2013-12-21,33,33,32,33,33,32,100,100,100,28.64,28.50,7,1,8,0.00
2013-12-22,34,33,32,34,33,32,100,100,100,28.79,28.38,6,0,6,0.00
2013-12-23,32,26,16,32,26,14,100,96,86,29.12,28.79,10,3,12,0.00
2013-12-24,20,15,11,17,12,8,89,85,76,29.29,29.09,8,-622,9,0.00
2013-12-25,24,20,11,24,18,8,96,88,81,29.26,28.88,11,-450,15,0.00
2013-12-26,28,26,24,26,23,18,98,88,74,29.06,28.85,10,4,13,0.00
2013-12-27,38,33,28,34,30,26,94,89,77,29.12,28.88,15,0,19,0.00
2013-12-28,45,38,32,37,32,30,96,80,60,28.94,28.73,13,6,17,0.00
2013-12-29,40,33,20,37,29,14,100,86,71,28.85,28.56,12,5,14,0.00
2013-12-30,21,19,17,16,13,8,82,74,61,29.06,28.85,9,1,10,0.00
2013-12-31,21,16,14,15,11,8,82,77,63,29.12,28.85,11,-43,14,0.00
2014-1-1,16,13,11,12,7,5,82,76,72,29.15,29.00,11,-106,11,0.00
2014-1-2,16,11,1,8,4,-7,75,71,66,29.12,28.91,14,-67,14,0.00